Time;durP1;ratioP1;P1;durP2;ratioP2;P2;SDS_P1;SDS_P2;PMS_P1;PMS_P2;Temp;Humidity;BMP_temperature;BMP_pressure;BME280_temperature;BME280_humidity;BME280_pressure;Samples;Min_cycle;Max_cycle;Signal;HPM_P1;HPM_P2
2020/12/12 00:02:31;;;;;;;33.45;18.42;;;;;;;-2.48;80.76;99645.63;1707058;84;21185;-59
2020/12/12 00:04:59;;;;;;;34.18;18.73;;;;;;;-2.45;80.76;99633.74;1698365;84;21142;-59
2020/12/12 00:07:27;;;;;;;33.80;18.75;;;;;;;-2.45;80.87;99639.91;1692831;84;21676;-59
2020/12/12 00:09:55;;;;;;;28.95;16.30;;;;;;;-2.45;80.95;99636.41;1699379;84;21625;-59
2020/12/12 00:12:22;;;;;;;30.05;18.23;;;;;;;-2.45;80.92;99627.08;1694630;84;21202;-59
2020/12/12 00:16:26;;;;;;;30.35;15.25;;;;;;;-2.43;81.15;99645.86;1774165;79;23154;-58
2020/12/12 00:18:54;;;;;;;28.80;17.05;;;;;;;-2.53;81.32;99630.19;1718724;81;21188;-59
2020/12/12 00:21:23;;;;;;;31.35;18.10;;;;;;;-2.47;81.39;99631.76;1694509;83;21149;-59
2020/12/12 00:23:51;;;;;;;30.80;17.85;;;;;;;-2.44;81.28;99624.20;1695623;82;21168;-59
2020/12/12 00:26:25;;;;;;;32.53;17.75;;;;;;;-2.47;81.37;99633.09;1714066;83;22435;-59
2020/12/12 00:28:52;;;;;;;31.00;17.32;;;;;;;-2.47;81.42;99633.92;1713271;82;21298;-59
2020/12/12 00:31:20;;;;;;;32.73;17.87;;;;;;;-2.45;81.46;99631.08;1682297;83;21176;-59
2020/12/12 00:33:48;;;;;;;30.23;17.37;;;;;;;-2.44;81.55;99627.41;1703866;83;21186;-59
2020/12/12 00:36:16;;;;;;;34.27;16.62;;;;;;;-2.42;81.48;99622.70;1722432;83;21161;-59
2020/12/12 00:38:44;;;;;;;29.05;16.55;;;;;;;-2.36;81.34;99623.25;1722694;82;21230;-59
2020/12/12 00:41:13;;;;;;;30.23;17.05;;;;;;;-2.35;81.32;99622.25;1720533;83;21157;-58
2020/12/12 00:43:40;;;;;;;31.75;16.23;;;;;;;-2.38;81.37;99619.47;1716740;82;21141;-59
2020/12/12 00:46:08;;;;;;;26.33;15.13;;;;;;;-2.40;81.43;99630.81;1702398;83;21153;-59
2020/12/12 00:48:36;;;;;;;29.90;17.12;;;;;;;-2.38;81.32;99618.13;1691667;83;21206;-59
2020/12/12 00:51:04;;;;;;;28.25;15.95;;;;;;;-2.36;81.39;99626.75;1714488;82;21152;-58
2020/12/12 00:53:32;;;;;;;25.43;14.33;;;;;;;-2.35;81.36;99627.08;1671118;84;21161;-58
2020/12/12 00:56:00;;;;;;;28.02;16.60;;;;;;;-2.28;81.04;99628.46;1677055;83;21690;-59
2020/12/12 00:58:28;;;;;;;28.10;16.25;;;;;;;-2.27;81.01;99628.79;1693928;83;21619;-59
2020/12/12 01:00:56;;;;;;;30.85;16.85;;;;;;;-2.27;81.08;99633.61;1694130;83;21628;-59
2020/12/12 01:03:24;;;;;;;28.77;16.05;;;;;;;-2.25;80.92;99630.23;1706044;83;21604;-58
2020/12/12 01:05:52;;;;;;;25.12;14.40;;;;;;;-2.28;80.96;99635.95;1670582;83;21193;-60
2020/12/12 01:08:20;;;;;;;28.12;15.08;;;;;;;-2.22;80.91;99627.69;1721478;82;21157;-59
2020/12/12 01:10:48;;;;;;;24.85;15.38;;;;;;;-2.25;81.04;99632.08;1705589;83;21173;-59
2020/12/12 01:13:16;;;;;;;29.63;16.90;;;;;;;-2.27;81.11;99629.62;1695524;83;21360;-60
2020/12/12 01:15:44;;;;;;;25.70;15.60;;;;;;;-2.23;81.15;99628.19;1675706;83;21157;-59
2020/12/12 01:18:12;;;;;;;20.48;12.20;;;;;;;-2.23;81.01;99623.39;1730404;81;21168;-59
2020/12/12 01:20:40;;;;;;;27.20;14.85;;;;;;;-2.25;81.16;99622.23;1703828;83;21188;-59
2020/12/12 01:23:08;;;;;;;27.95;17.00;;;;;;;;;;1704182;83;21528;-59
2020/12/12 01:25:37;;;;;;;28.30;16.17;;;;;;;-2.22;81.10;99619.69;1728084;83;21179;-59
2020/12/12 01:28:06;;;;;;;28.60;15.93;;;;;;;-2.19;81.15;99627.30;1689281;83;21597;-59
2020/12/12 01:30:35;;;;;;;31.25;17.92;;;;;;;-2.15;80.97;99624.56;1676797;84;21212;-59
2020/12/12 01:33:03;;;;;;;25.60;14.53;;;;;;;-2.12;80.98;99625.00;1714225;82;21616;-59
2020/12/12 01:35:32;;;;;;;27.20;15.95;;;;;;;-2.19;81.13;99617.45;1730082;83;21216;-59
2020/12/12 01:38:00;;;;;;;27.75;15.60;;;;;;;-2.14;81.19;99629.72;1728055;81;21657;-58
2020/12/12 01:40:28;;;;;;;26.80;16.05;;;;;;;-2.18;80.96;99611.62;1717240;83;21595;-59
2020/12/12 01:42:56;;;;;;;22.58;14.43;;;;;;;-2.15;81.00;99629.39;1719466;81;21221;-58
2020/12/12 01:45:24;;;;;;;27.37;15.70;;;;;;;-2.15;81.10;99621.90;1718653;83;21225;-58
2020/12/12 01:47:51;;;;;;;24.67;15.48;;;;;;;-2.11;81.03;99626.66;1706836;83;21188;-58
2020/12/12 01:50:19;;;;;;;28.60;17.52;;;;;;;-2.20;81.22;99625.67;1722074;83;21295;-58
2020/12/12 01:52:51;;;;;;;27.45;16.02;;;;;;;-2.18;81.40;99611.62;1674799;83;21198;-58
2020/12/12 01:55:21;;;;;;;30.08;16.10;;;;;;;-2.15;81.33;99622.73;1707760;83;21212;-58
2020/12/12 01:57:52;;;;;;;26.12;15.20;;;;;;;-2.11;81.24;99617.33;1683937;84;21666;-58
2020/12/12 02:00:21;;;;;;;30.08;17.52;;;;;;;-2.09;81.14;99607.28;1683533;84;21191;-58
2020/12/12 02:05:40;;;;;;;29.27;16.30;;;;;;;-2.03;81.12;99597.70;1794156;79;22760;-56
2020/12/12 02:08:16;;;;;;;27.70;16.07;;;;;;;-2.05;81.00;99602.38;1743654;81;21608;-58
2020/12/12 02:10:49;;;;;;;28.23;16.57;;;;;;;-2.07;81.12;99612.43;1731296;82;21153;-59
2020/12/12 02:13:18;;;;;;;26.65;14.40;;;;;;;-2.06;81.06;99598.91;1715262;82;21678;-58
2020/12/12 02:15:46;;;;;;;26.93;15.03;;;;;;;-2.07;80.85;99606.59;1698190;82;21549;-59
2020/12/12 02:18:22;;;;;;;23.02;14.28;;;;;;;-2.04;80.99;99604.03;1712129;84;21231;-59
2020/12/12 02:20:57;;;;;;;29.00;15.53;;;;;;;-2.01;80.99;99600.98;1728878;82;21580;-59
2020/12/12 02:23:25;;;;;;;27.45;16.12;;;;;;;-2.03;80.95;99597.19;1746034;81;21247;-59
2020/12/12 02:25:55;;;;;;;29.65;15.35;;;;;;;-2.01;80.74;99595.64;1725946;83;21173;-59
2020/12/12 02:28:26;;;;;;;24.37;14.15;;;;;;;-2.04;80.72;99590.70;1722339;83;21214;-59
2020/12/12 02:30:52;;;;;;;26.50;15.28;;;;;;;-2.08;80.85;99590.77;1722662;83;21154;-58
2020/12/12 02:33:21;;;;;;;26.62;13.35;;;;;;;-2.08;80.91;99590.27;1726953;83;21135;-59
2020/12/12 02:35:49;;;;;;;26.27;15.88;;;;;;;-2.11;80.72;99591.16;1681807;83;21610;-60
2020/12/12 02:38:17;;;;;;;26.45;15.13;;;;;;;-2.09;80.88;99581.94;1677701;82;21222;-59
2020/12/12 02:40:46;;;;;;;27.13;15.03;;;;;;;-2.02;80.84;99587.34;1709426;82;21585;-60
2020/12/12 02:43:13;;;;;;;25.68;13.05;;;;;;;-2.09;80.88;99587.27;1712131;82;21734;-59
2020/12/12 02:45:47;;;;;;;24.63;14.03;;;;;;;-2.05;80.69;99588.54;1681816;82;21173;-60
2020/12/12 02:48:15;;;;;;;22.25;13.22;;;;;;;-2.08;80.65;99578.27;1723357;82;21668;-60
2020/12/12 02:50:43;;;;;;;27.17;13.80;;;;;;;-2.03;80.65;99589.69;1727280;83;21722;-59
2020/12/12 02:53:11;;;;;;;22.90;14.75;;;;;;;-2.02;80.49;99590.81;1700267;83;21170;-59
2020/12/12 02:55:39;;;;;;;28.90;15.75;;;;;;;-2.10;80.36;99575.48;1698427;84;21176;-60
2020/12/12 02:58:07;;;;;;;26.82;15.40;;;;;;;-2.01;80.55;99596.98;1688436;83;21128;-59
2020/12/12 03:00:35;;;;;;;26.57;15.83;;;;;;;-1.99;80.49;99594.95;1711265;83;21927;-60
2020/12/12 03:03:03;;;;;;;26.30;14.10;;;;;;;-2.06;80.38;99604.75;1742499;81;21114;-59
2020/12/12 03:05:31;;;;;;;23.35;13.28;;;;;;;-2.01;79.98;99593.80;1730843;82;21974;-59
2020/12/12 03:07:59;;;;;;;25.10;13.95;;;;;;;-2.04;79.96;99586.70;1713975;83;21197;-59
2020/12/12 03:10:27;;;;;;;25.50;15.08;;;;;;;-2.04;80.05;99594.20;1691853;83;21142;-59
2020/12/12 03:12:55;;;;;;;26.77;15.08;;;;;;;-2.07;80.09;99598.59;1707625;83;21650;-60
2020/12/12 03:15:23;;;;;;;25.88;14.63;;;;;;;-2.09;80.00;99593.94;1706066;82;21640;-59
2020/12/12 03:17:50;;;;;;;24.00;13.68;;;;;;;-2.03;79.86;99597.19;1710025;82;21228;-59
2020/12/12 03:20:18;;;;;;;26.12;14.20;;;;;;;-2.09;79.92;99593.94;1702589;83;21126;-60
2020/12/12 03:22:46;;;;;;;23.05;14.60;;;;;;;-2.09;79.63;99601.94;1712893;84;21650;-60
2020/12/12 03:25:14;;;;;;;25.60;14.33;;;;;;;-2.08;79.63;99604.11;1686052;85;21627;-59
2020/12/12 03:27:42;;;;;;;30.62;14.93;;;;;;;-2.10;79.64;99602.98;1640534;85;21157;-60
2020/12/12 03:30:11;;;;;;;27.07;14.23;;;;;;;-2.07;79.49;99605.77;1684482;84;21618;-59
2020/12/12 03:32:39;;;;;;;21.60;12.45;;;;;;;-2.11;79.40;99597.33;1684111;85;21166;-60
2020/12/12 03:35:07;;;;;;;25.80;14.75;;;;;;;-2.13;79.46;99600.70;1684238;85;21173;-60
2020/12/12 03:37:34;;;;;;;26.23;14.80;;;;;;;-2.16;79.39;99591.73;1687918;84;21199;-60
2020/12/12 03:40:03;;;;;;;23.27;14.03;;;;;;;-2.15;79.67;99600.05;1726029;82;21165;-59
2020/12/12 03:42:31;;;;;;;22.00;13.20;;;;;;;-2.22;79.48;99589.02;1752895;81;21604;-59
2020/12/12 03:44:59;;;;;;;25.08;13.68;;;;;;;-2.17;79.59;99598.61;1713478;82;21158;-60
2020/12/12 03:47:27;;;;;;;25.92;14.58;;;;;;;-2.25;79.49;99582.23;1731194;82;21584;-60
2020/12/12 03:49:55;;;;;;;21.55;12.50;;;;;;;-2.23;79.61;99596.73;1725063;81;21632;-59
2020/12/12 03:52:23;;;;;;;23.73;12.85;;;;;;;-2.26;79.48;99598.41;1756359;81;21203;-59
2020/12/12 03:54:52;;;;;;;22.22;13.03;;;;;;;-2.37;79.31;99581.10;1776872;81;21236;-60
2020/12/12 03:57:19;;;;;;;27.52;15.60;;;;;;;-2.31;79.32;99596.86;1749169;81;21666;-59
2020/12/12 03:59:47;;;;;;;28.12;14.47;;;;;;;-2.35;79.74;99600.92;1748107;81;21165;-60
2020/12/12 04:02:16;;;;;;;29.95;14.70;;;;;;;-2.31;79.83;99602.19;1691414;83;21219;-60
2020/12/12 04:04:44;;;;;;;34.10;17.02;;;;;;;-2.31;79.78;99599.02;1713860;82;21183;-59
2020/12/12 04:07:11;;;;;;;28.30;15.25;;;;;;;-2.33;79.70;99593.03;1755768;81;21650;-59
2020/12/12 04:09:40;;;;;;;37.78;17.35;;;;;;;-2.32;79.71;99594.69;1711988;82;21191;-59
2020/12/12 04:12:08;;;;;;;49.13;21.75;;;;;;;-2.40;79.53;99590.82;1702376;81;21161;-59
2020/12/12 04:14:35;;;;;;;27.77;14.25;;;;;;;-2.39;79.65;99591.15;1748636;80;21148;-58
2020/12/12 04:17:03;;;;;;;38.23;18.10;;;;;;;-2.41;79.75;99587.03;1747242;81;21598;-59
2020/12/12 04:19:32;;;;;;;28.35;15.25;;;;;;;-2.36;79.67;99587.27;1767000;81;21195;-59
2020/12/12 04:22:01;;;;;;;22.70;13.35;;;;;;;-2.37;79.63;99577.64;1726555;82;21183;-59
2020/12/12 04:24:29;;;;;;;26.68;14.85;;;;;;;-2.39;79.53;99580.48;1760149;81;21158;-60
2020/12/12 04:26:56;;;;;;;24.77;14.23;;;;;;;-2.41;79.46;99580.37;1733323;81;21615;-60
2020/12/12 04:29:24;;;;;;;28.00;16.00;;;;;;;-2.43;79.55;99575.72;1769524;81;21573;-59
2020/12/12 04:31:52;;;;;;;25.80;14.60;;;;;;;-2.47;79.89;99580.61;1742624;82;21171;-59
2020/12/12 04:34:20;;;;;;;25.60;14.30;;;;;;;-2.51;79.81;99585.50;1716835;81;21161;-59
2020/12/12 04:36:48;;;;;;;25.55;13.55;;;;;;;-2.47;79.73;99594.44;1776408;81;21161;-58
2020/12/12 04:39:16;;;;;;;26.90;15.30;;;;;;;-2.52;79.64;99587.87;1743820;80;21192;-59
2020/12/12 04:41:44;;;;;;;27.13;14.95;;;;;;;-2.54;79.78;99589.88;1711231;84;21203;-59
2020/12/12 04:44:12;;;;;;;25.65;13.15;;;;;;;-2.58;79.95;99588.61;1763404;81;21141;-59
2020/12/12 04:46:40;;;;;;;23.62;12.43;;;;;;;-2.54;79.65;99579.73;1756170;81;21161;-59
2020/12/12 04:49:08;;;;;;;23.52;13.18;;;;;;;-2.55;79.61;99572.23;1747342;81;21185;-60
2020/12/12 04:51:36;;;;;;;23.18;13.50;;;;;;;-2.58;79.63;99559.30;1745055;81;21170;-59
2020/12/12 04:54:04;;;;;;;23.50;13.58;;;;;;;-2.59;79.59;99577.66;1743110;81;21312;-59
2020/12/12 04:56:35;;;;;;;21.50;12.60;;;;;;;-2.56;79.51;99575.11;1746692;82;21295;-58
2020/12/12 04:59:05;;;;;;;22.98;11.48;;;;;;;-2.59;79.55;99575.50;1747149;82;21182;-59
2020/12/12 05:01:33;;;;;;;23.07;13.18;;;;;;;-2.63;79.25;99566.23;1758390;81;21118;-59
2020/12/12 05:04:02;;;;;;;27.27;14.30;;;;;;;-2.68;79.49;99560.13;1752844;80;21141;-59
2020/12/12 05:06:31;;;;;;;23.22;12.95;;;;;;;-2.68;79.54;99573.45;1777711;80;21149;-59
2020/12/12 05:08:59;;;;;;;21.85;11.97;;;;;;;-2.68;79.41;99565.97;1726391;82;21155;-59
2020/12/12 05:11:27;;;;;;;21.52;11.63;;;;;;;-2.75;79.54;99563.74;1755190;82;21594;-59
2020/12/12 05:13:54;;;;;;;23.12;12.07;;;;;;;-2.77;79.36;99571.12;1737129;82;21133;-59
2020/12/12 05:16:22;;;;;;;23.80;12.55;;;;;;;-2.76;79.33;99566.91;1770821;80;21138;-59
2020/12/12 05:18:50;;;;;;;19.10;11.65;;;;;;;-2.72;79.33;99571.35;1786133;80;21165;-59
2020/12/12 05:21:18;;;;;;;23.05;12.35;;;;;;;-2.72;79.12;99565.52;1785019;80;21133;-59
2020/12/12 05:23:46;;;;;;;22.42;12.58;;;;;;;-2.72;79.18;99570.84;1752829;80;21194;-59
2020/12/12 05:26:17;;;;;;;21.10;11.05;;;;;;;-2.74;79.10;99568.89;1747533;80;21168;-60
2020/12/12 05:28:47;;;;;;;21.25;12.07;;;;;;;-2.74;79.00;99570.23;1725912;82;21298;-59
2020/12/12 05:31:15;;;;;;;23.42;13.38;;;;;;;-2.78;78.94;99562.30;1726507;80;21334;-59
2020/12/12 05:33:43;;;;;;;22.95;13.32;;;;;;;-2.79;79.10;99567.80;1768272;80;21125;-59
2020/12/12 05:36:11;;;;;;;22.93;12.58;;;;;;;-2.83;79.17;99567.86;1717616;82;21132;-59
2020/12/12 05:38:39;;;;;;;25.43;13.32;;;;;;;-2.92;79.14;99554.36;1755112;82;21185;-59
2020/12/12 05:41:07;;;;;;;19.27;10.35;;;;;;;-2.81;78.95;99566.67;1767528;80;21165;-59
2020/12/12 05:43:36;;;;;;;22.00;11.08;;;;;;;-2.84;78.80;99573.72;1755577;80;21176;-59
2020/12/12 05:46:04;;;;;;;22.70;12.70;;;;;;;-2.91;78.39;99575.49;1758481;80;21173;-59
2020/12/12 05:48:32;;;;;;;24.43;11.88;;;;;;;-2.96;78.66;99576.55;1755881;80;21172;-59
2020/12/12 05:51:00;;;;;;;20.70;11.10;;;;;;;-2.94;78.79;99581.17;1725853;82;21129;-59
2020/12/12 05:53:28;;;;;;;19.05;10.10;;;;;;;-2.99;78.73;99572.94;1757036;80;21102;-59
2020/12/12 05:55:56;;;;;;;19.87;10.65;;;;;;;-3.00;77.93;99572.61;1725075;82;21257;-59
2020/12/12 05:58:25;;;;;;;20.12;12.15;;;;;;;-3.01;77.71;99567.79;1755189;80;21140;-59
2020/12/12 06:00:53;;;;;;;18.15;9.95;;;;;;;-3.08;77.85;99581.54;1764457;80;21545;-58
2020/12/12 06:03:33;;;;;;;18.48;10.85;;;;;;;-3.13;77.47;99569.81;1766071;80;21192;-59
2020/12/12 06:06:05;;;;;;;16.07;9.08;;;;;;;-3.20;77.31;99564.92;1695941;83;21193;-59
2020/12/12 06:08:35;;;;;;;15.75;9.05;;;;;;;-3.29;77.00;99558.87;1702754;83;21756;-59
2020/12/12 06:11:06;;;;;;;17.52;10.00;;;;;;;-3.28;77.13;99565.02;1706316;83;21188;-59
2020/12/12 06:13:38;;;;;;;19.52;10.63;;;;;;;-3.30;77.10;99567.89;1717378;83;21318;-59
2020/12/12 06:16:07;;;;;;;19.10;10.20;;;;;;;-3.35;77.37;99576.93;1730437;81;21153;-58
2020/12/12 06:18:53;;;;;;;16.12;9.63;;;;;;;-3.35;77.58;99575.59;1722691;82;21165;-59
2020/12/12 06:21:23;;;;;;;17.90;10.63;;;;;;;-3.41;77.24;99584.84;1729198;82;21302;-59
2020/12/12 06:23:52;;;;;;;17.57;10.30;;;;;;;-3.40;77.39;99585.17;1729308;83;21213;-59
2020/12/12 06:26:42;;;;;;;21.00;11.73;;;;;;;-3.47;77.55;99585.05;1708217;82;21560;-59
2020/12/12 06:29:14;;;;;;;21.93;11.40;;;;;;;-3.41;77.85;99576.86;1711671;83;21129;-59
2020/12/12 06:31:40;;;;;;;21.77;12.30;;;;;;;-3.56;78.03;99549.76;1697816;83;21174;-59
2020/12/12 06:34:08;;;;;;;20.20;12.98;;;;;;;-3.40;78.03;99583.84;1692685;85;21497;-59
2020/12/12 06:36:36;;;;;;;20.92;12.23;;;;;;;-3.44;77.60;99582.55;1675122;85;21205;-59
2020/12/12 06:39:24;;;;;;;27.15;13.08;;;;;;;-3.45;77.76;99579.06;1717159;82;21596;-59
2020/12/12 06:41:55;;;;;;;18.73;11.53;;;;;;;-3.51;77.59;99584.60;1721340;83;21585;-59
2020/12/12 06:44:41;;;;;;;19.37;12.28;;;;;;;-3.57;77.88;99585.85;1719937;82;21725;-59
2020/12/12 06:47:09;;;;;;;24.35;13.95;;;;;;;-3.56;77.98;99583.02;1685766;84;21650;-59
2020/12/12 06:49:41;;;;;;;28.12;14.83;;;;;;;-3.54;78.24;99582.81;1693748;83;21166;-59
2020/12/12 06:52:07;;;;;;;22.02;13.62;;;;;;;-3.52;78.36;99580.31;1709587;83;21184;-59
2020/12/12 06:54:35;;;;;;;24.32;13.65;;;;;;;-3.42;78.32;99576.52;1703415;83;21146;-59
2020/12/12 06:57:03;;;;;;;35.40;22.10;;;;;;;-3.42;78.04;99577.86;1676091;83;21130;-59
2020/12/12 06:59:36;;;;;;;77.67;43.17;;;;;;;-3.40;78.06;99587.30;1691644;83;21227;-58
2020/12/12 07:02:05;;;;;;;23.45;15.48;;;;;;;-3.37;78.16;99582.95;1696084;83;21187;-59
2020/12/12 07:04:37;;;;;;;74.05;38.05;;;;;;;-3.35;78.03;99586.25;1732506;80;21170;-59
2020/12/12 07:07:09;;;;;;;55.03;28.65;;;;;;;-3.36;77.67;99575.77;1740324;82;21137;-58
2020/12/12 07:09:38;;;;;;;49.13;26.07;;;;;;;-3.38;77.66;99576.48;1735479;82;21561;-59
2020/12/12 07:12:07;;;;;;;39.90;21.45;;;;;;;-3.44;77.56;99572.73;1750940;82;21578;-59
2020/12/12 07:14:37;;;;;;;59.00;31.70;;;;;;;-3.51;77.45;99572.63;1725673;82;21141;-59
2020/12/12 07:17:06;;;;;;;58.30;28.57;;;;;;;-3.51;77.58;99565.97;1747184;80;21185;-59
2020/12/12 07:19:40;;;;;;;60.90;32.15;;;;;;;-3.52;77.81;99559.53;1751220;82;21140;-59
2020/12/12 07:22:11;;;;;;;41.98;27.62;;;;;;;-3.48;77.74;99565.30;1750925;82;21227;-58
2020/12/12 07:24:41;;;;;;;73.83;37.42;;;;;;;-3.43;77.81;99561.06;1742564;82;21165;-59
2020/12/12 07:27:09;;;;;;;44.53;22.52;;;;;;;-3.35;77.69;99560.13;1717885;82;21194;-59
2020/12/12 07:29:38;;;;;;;58.23;30.92;;;;;;;-3.32;77.66;99558.42;1732747;82;21167;-59
2020/12/12 07:32:06;;;;;;;37.23;20.57;;;;;;;-3.37;77.81;99559.00;1698445;83;21177;-58
2020/12/12 07:34:34;;;;;;;29.87;16.93;;;;;;;-3.39;77.35;99554.86;1687738;85;21138;-59
2020/12/12 07:37:07;;;;;;;28.92;17.32;;;;;;;-3.39;77.31;99570.83;1748494;82;21165;-58
2020/12/12 07:39:38;;;;;;;25.43;16.57;;;;;;;-3.45;77.38;99555.11;1725335;82;21153;-59
2020/12/12 07:42:08;;;;;;;26.50;16.10;;;;;;;-3.42;77.57;99568.55;1726173;82;21202;-58
2020/12/12 07:44:39;;;;;;;42.40;23.42;;;;;;;-3.40;77.49;99569.20;1728596;82;21323;-59
2020/12/12 07:47:10;;;;;;;33.60;19.55;;;;;;;-3.41;77.43;99562.22;1698460;82;21642;-59
2020/12/12 07:49:39;;;;;;;27.60;14.93;;;;;;;-3.43;77.17;99566.87;1728180;82;21169;-59
2020/12/12 07:52:11;;;;;;;31.17;18.45;;;;;;;-3.44;77.09;99559.93;1731139;82;21633;-59
2020/12/12 07:57:14;;;;;;;30.65;16.82;;;;;;;-3.44;77.41;99562.59;1734627;82;21361;-59
2020/12/12 07:59:42;;;;;;;25.92;14.73;;;;;;;-3.39;77.61;99561.01;1745087;82;21562;-58
2020/12/12 08:02:12;;;;;;;27.77;17.30;;;;;;;-3.35;77.44;99558.80;1718858;82;21593;-58
2020/12/12 08:04:40;;;;;;;33.60;18.20;;;;;;;-3.34;77.66;99559.13;1731065;82;21122;-59
2020/12/12 08:07:12;;;;;;;30.08;17.32;;;;;;;-3.30;77.72;99557.25;1744208;82;21202;-59
2020/12/12 08:09:46;;;;;;;26.05;15.43;;;;;;;-3.25;77.74;99560.16;1743533;82;21603;-59
2020/12/12 08:12:30;;;;;;;23.32;13.98;;;;;;;-3.27;77.83;99551.54;1734142;82;21148;-59
2020/12/12 08:15:22;;;;;;;28.00;15.10;;;;;;;-3.24;77.25;99551.66;1751741;82;21136;-59
2020/12/12 08:17:48;;;;;;;42.53;24.55;;;;;;;-3.28;77.39;99556.53;1751730;82;21149;-59
2020/12/12 08:20:23;;;;;;;31.80;15.98;;;;;;;-3.44;77.78;99543.46;1745501;82;21592;-60
2020/12/12 08:22:48;;;;;;;48.28;27.50;;;;;;;-3.29;78.03;99552.22;1750261;82;21140;-59
2020/12/12 08:25:15;;;;;;;67.32;38.40;;;;;;;-3.31;78.37;99547.59;1751740;82;21731;-60
2020/12/12 08:27:44;;;;;;;46.98;34.92;;;;;;;-3.32;78.26;99546.44;1673704;82;21282;-59
2020/12/12 08:30:12;;;;;;;26.80;15.58;;;;;;;-3.26;78.49;99551.04;1750474;82;21693;-60
2020/12/12 08:32:46;;;;;;;31.23;19.07;;;;;;;-3.19;78.14;99558.59;1752585;82;21208;-60
2020/12/12 08:35:18;;;;;;;29.15;17.20;;;;;;;-3.22;77.93;99553.62;1723633;82;21270;-64
2020/12/12 08:38:12;;;;;;;28.17;16.23;;;;;;;-3.24;77.85;99553.83;1750877;82;21571;-60
2020/12/12 08:40:49;;;;;;;22.58;13.90;;;;;;;-3.17;77.92;99556.55;1751225;82;21574;-60
2020/12/12 08:43:17;;;;;;;19.67;12.23;;;;;;;-3.20;77.89;99541.79;1747735;82;21201;-60
2020/12/12 08:45:56;;;;;;;26.37;15.83;;;;;;;-3.24;78.10;99551.16;1747939;82;21657;-60
2020/12/12 08:48:33;;;;;;;27.45;13.20;;;;;;;-3.22;78.20;99550.45;1746482;82;21136;-60
2020/12/12 08:51:02;;;;;;;22.27;13.90;;;;;;;-3.17;78.24;99549.90;1724133;82;21629;-60
2020/12/12 08:53:41;;;;;;;21.10;12.95;;;;;;;-3.14;78.31;99544.19;1751633;82;21292;-59
2020/12/12 08:56:30;;;;;;;24.47;15.55;;;;;;;-3.22;78.29;99538.97;1739796;82;21197;-59
2020/12/12 08:59:00;;;;;;;27.82;15.05;;;;;;;-3.17;78.51;99540.08;1752206;82;21121;-60
2020/12/12 09:01:34;;;;;;;27.05;14.05;;;;;;;-3.12;78.59;99531.00;1752085;82;21167;-60
2020/12/12 09:04:13;;;;;;;24.67;13.18;;;;;;;-3.10;78.22;99528.16;1751492;82;21166;-59
2020/12/12 09:06:47;;;;;;;26.55;14.73;;;;;;;-3.13;77.81;99533.87;1742503;81;21135;-59
2020/12/12 09:09:25;;;;;;;24.77;13.10;;;;;;;-3.13;77.76;99530.70;1707804;83;21201;-59
2020/12/12 09:12:01;;;;;;;23.73;13.45;;;;;;;-3.12;77.80;99519.02;1697324;83;21258;-60
2020/12/12 09:14:31;;;;;;;19.83;13.03;;;;;;;-3.05;77.91;99519.91;1748887;82;21157;-60
2020/12/12 09:17:09;;;;;;;24.52;13.93;;;;;;;-3.02;77.88;99516.06;1741884;82;21137;-60
2020/12/12 09:19:39;;;;;;;24.55;14.45;;;;;;;-2.97;77.93;99524.29;1725628;82;21154;-59
2020/12/12 09:22:08;;;;;;;24.47;15.10;;;;;;;-2.93;77.80;99518.91;1740472;82;21610;-60
2020/12/12 09:24:36;;;;;;;26.65;14.68;;;;;;;-2.88;77.40;99513.02;1661303;85;21154;-60
2020/12/12 09:27:04;;;;;;;23.52;13.60;;;;;;;-2.89;77.42;99505.52;1735755;80;21319;-60
2020/12/12 09:29:32;;;;;;;25.00;15.23;;;;;;;-2.90;77.29;99497.71;1744186;82;21548;-59
2020/12/12 09:32:00;;;;;;;25.90;14.35;;;;;;;-2.91;77.51;99494.25;1738486;82;21580;-60
2020/12/12 09:34:28;;;;;;;25.85;14.40;;;;;;;-2.92;76.84;99493.09;1734819;82;21146;-61
2020/12/12 09:36:56;;;;;;;28.70;15.60;;;;;;;-2.90;76.42;99483.06;1733783;82;21150;-61
2020/12/12 09:39:23;;;;;;;24.72;13.72;;;;;;;-2.89;76.75;99484.22;1719648;82;21153;-61
2020/12/12 09:41:59;;;;;;;33.20;18.52;;;;;;;-2.83;76.97;99483.44;1750949;82;21638;-60
2020/12/12 09:44:28;;;;;;;32.55;17.95;;;;;;;-2.83;77.51;99481.28;1743067;82;21510;-60
2020/12/12 09:46:56;;;;;;;43.50;25.90;;;;;;;-2.82;77.76;99478.44;1741151;80;21191;-60
2020/12/12 09:49:24;;;;;;;45.10;30.20;;;;;;;-2.82;77.36;99482.44;1726799;82;21217;-60
2020/12/12 09:51:52;;;;;;;28.50;17.32;;;;;;;-2.83;77.50;99472.78;1736637;82;21173;-59
2020/12/12 09:54:20;;;;;;;38.92;23.70;;;;;;;-2.75;77.38;99466.00;1746669;80;21126;-60
2020/12/12 09:56:48;;;;;;;25.32;16.17;;;;;;;-2.75;77.47;99467.33;1737883;82;21153;-65
2020/12/12 09:59:17;;;;;;;25.30;15.78;;;;;;;-2.78;76.98;99458.39;1735098;82;22018;-60
2020/12/12 10:01:45;;;;;;;29.45;17.05;;;;;;;-2.75;77.33;99465.16;1739125;82;21473;-60
2020/12/12 10:04:13;;;;;;;26.77;15.63;;;;;;;-2.75;77.41;99451.84;1721683;82;21581;-60
2020/12/12 10:06:44;;;;;;;23.98;14.70;;;;;;;-2.75;76.88;99462.00;1751920;82;21178;-60
2020/12/12 10:09:12;;;;;;;21.87;13.85;;;;;;;-2.75;76.97;99461.17;1752076;82;21104;-60
2020/12/12 10:11:41;;;;;;;25.77;14.63;;;;;;;-2.76;76.34;99467.00;1749274;82;21602;-59
2020/12/12 10:14:11;;;;;;;23.62;14.53;;;;;;;-2.77;76.61;99453.39;1720340;82;21197;-60
2020/12/12 10:16:39;;;;;;;26.33;15.40;;;;;;;-2.73;76.51;99454.63;1752591;82;21592;-60
2020/12/12 10:19:07;;;;;;;24.35;14.87;;;;;;;-2.75;76.21;99446.52;1752519;82;21131;-59
2020/12/12 10:21:35;;;;;;;31.90;18.50;;;;;;;-2.72;76.53;99452.28;1751518;82;21132;-59
2020/12/12 10:24:03;;;;;;;35.58;18.67;;;;;;;-2.73;76.67;99455.16;1750369;82;21132;-60
2020/12/12 10:26:31;;;;;;;26.37;14.60;;;;;;;-2.68;76.66;99445.55;1718141;82;21136;-60
2020/12/12 10:28:59;;;;;;;26.07;15.80;;;;;;;-2.68;75.97;99440.23;1752848;82;21583;-60
2020/12/12 10:31:27;;;;;;;23.15;13.62;;;;;;;-2.65;76.18;99447.00;1747838;82;21158;-60
2020/12/12 10:33:55;;;;;;;24.75;12.75;;;;;;;-2.65;75.55;99439.00;1752449;82;21136;-61
2020/12/12 10:36:25;;;;;;;26.37;14.03;;;;;;;-2.64;75.07;99438.00;1748915;82;21610;-60
2020/12/12 10:38:53;;;;;;;23.00;12.55;;;;;;;-2.62;75.57;99433.28;1717958;82;21195;-60
2020/12/12 10:41:21;;;;;;;23.42;12.82;;;;;;;-2.58;75.39;99433.21;1722089;82;21140;-60
2020/12/12 10:43:49;;;;;;;20.00;12.23;;;;;;;-2.54;75.65;99435.30;1752536;82;21173;-60
2020/12/12 10:46:17;;;;;;;23.87;12.90;;;;;;;-2.52;75.74;99422.63;1751699;82;21195;-59
2020/12/12 10:48:45;;;;;;;25.72;14.65;;;;;;;-2.49;75.37;99428.56;1751754;82;21132;-61
2020/12/12 10:51:18;;;;;;;25.05;14.60;;;;;;;-2.52;75.40;99419.95;1722209;82;21163;-61
2020/12/12 10:53:46;;;;;;;28.57;15.65;;;;;;;-2.51;75.77;99424.75;1743576;82;21130;-60
2020/12/12 10:56:14;;;;;;;25.40;14.55;;;;;;;-2.51;75.78;99420.25;1749157;82;21862;-60
2020/12/12 10:58:41;;;;;;;29.15;15.90;;;;;;;-2.51;75.98;99412.76;1752351;82;21550;-61
2020/12/12 11:01:10;;;;;;;28.02;14.18;;;;;;;-2.51;76.32;99411.42;1747088;82;21267;-61
2020/12/12 11:03:38;;;;;;;27.42;13.35;;;;;;;-2.57;75.97;99406.37;1717597;82;21792;-60
2020/12/12 11:06:05;;;;;;;32.13;16.02;;;;;;;-2.49;76.06;99416.06;1698765;81;21276;-60
2020/12/12 11:08:34;;;;;;;33.00;16.25;;;;;;;-2.48;76.14;99419.56;1756403;81;21185;-61
2020/12/12 11:11:02;;;;;;;30.90;16.32;;;;;;;-2.48;76.53;99418.23;1748282;81;21299;-60
2020/12/12 11:13:29;;;;;;;31.17;16.30;;;;;;;-2.47;76.65;99428.67;1745814;82;21610;-60
2020/12/12 11:15:58;;;;;;;34.63;17.60;;;;;;;-2.43;76.62;99435.77;1757912;81;21284;-60
2020/12/12 11:18:28;;;;;;;38.92;20.35;;;;;;;-2.42;76.90;99435.59;1751783;82;21178;-60
2020/12/12 11:20:56;;;;;;;26.82;15.55;;;;;;;-2.37;76.81;99431.81;1695697;82;21161;-60
2020/12/12 11:23:24;;;;;;;33.42;19.20;;;;;;;-2.42;76.85;99437.42;1745735;82;21129;-59
2020/12/12 11:25:52;;;;;;;26.45;14.95;;;;;;;-2.42;77.08;99431.59;1750968;81;21165;-60
2020/12/12 11:28:20;;;;;;;29.02;16.93;;;;;;;-2.54;76.53;99425.14;1769006;81;21178;-61
2020/12/12 11:30:49;;;;;;;24.82;15.03;;;;;;;-2.54;76.68;99419.81;1762424;81;21158;-60
2020/12/12 11:33:17;;;;;;;21.50;12.43;;;;;;;-2.54;76.59;99420.64;1751701;82;21158;-60
2020/12/12 11:35:58;;;;;;;29.02;16.30;;;;;;;-2.57;76.07;99420.20;1749306;81;21161;-60